sensor_id;sensor_type;location;lat;lon;timestamp;pressure;altitude;pressure_sealevel;temperature;humidity
65329;BME280;51941;52.210;5.158;2023-02-28T00:01:19;103147.31;;;3.45;80.21
65329;BME280;51941;52.210;5.158;2023-02-28T00:03:46;103138.63;;;3.45;80.02
65329;BME280;51941;52.210;5.158;2023-02-28T00:06:13;103143.59;;;3.48;80.32
65329;BME280;51941;52.210;5.158;2023-02-28T00:08:40;103140.84;;;3.49;80.15
65329;BME280;51941;52.210;5.158;2023-02-28T00:11:09;103144.44;;;3.48;80.83
65329;BME280;51941;52.210;5.158;2023-02-28T00:13:40;103045.31;;;2.82;80.44
65329;BME280;51941;52.210;5.158;2023-02-28T00:16:10;103057.75;;;2.89;80.41
65329;BME280;51941;52.210;5.158;2023-02-28T00:18:38;103149.16;;;3.54;80.42
65329;BME280;51941;52.210;5.158;2023-02-28T00:21:06;103144.88;;;3.53;80.45
65329;BME280;51941;52.210;5.158;2023-02-28T00:23:33;103004.25;;;2.61;80.36
65329;BME280;51941;52.210;5.158;2023-02-28T00:26:00;103105.34;;;3.36;80.56
65329;BME280;51941;52.210;5.158;2023-02-28T00:28:27;103145.50;;;3.67;80.72
65329;BME280;51941;52.210;5.158;2023-02-28T00:30:55;103007.75;;;2.83;81.09
65329;BME280;51941;52.210;5.158;2023-02-28T00:33:23;103145.50;;;3.67;82.06
65329;BME280;51941;52.210;5.158;2023-02-28T00:35:50;103135.28;;;3.64;81.94
65329;BME280;51941;52.210;5.158;2023-02-28T00:38:16;103134.88;;;3.68;81.69
65329;BME280;51941;52.210;5.158;2023-02-28T00:40:43;103144.03;;;3.74;81.50
65329;BME280;51941;52.210;5.158;2023-02-28T00:43:10;102914.91;;;2.35;81.06
65329;BME280;51941;52.210;5.158;2023-02-28T00:45:37;103139.09;;;3.80;81.17
65329;BME280;51941;52.210;5.158;2023-02-28T00:48:05;103134.41;;;3.84;80.93
65329;BME280;51941;52.210;5.158;2023-02-28T00:50:32;103137.63;;;3.87;80.96
65329;BME280;51941;52.210;5.158;2023-02-28T00:52:59;103143.56;;;3.89;81.24
65329;BME280;51941;52.210;5.158;2023-02-28T00:55:26;103139.28;;;3.88;81.00
65329;BME280;51941;52.210;5.158;2023-02-28T00:57:52;103143.16;;;3.94;81.12
65329;BME280;51941;52.210;5.158;2023-02-28T01:00:19;103129.63;;;3.89;81.04
65329;BME280;51941;52.210;5.158;2023-02-28T01:02:49;103139.59;;;3.95;81.18
65329;BME280;51941;52.210;5.158;2023-02-28T01:05:17;103139.34;;;3.98;81.09
65329;BME280;51941;52.210;5.158;2023-02-28T01:07:44;103134.81;;;4.00;80.49
65329;BME280;51941;52.210;5.158;2023-02-28T01:10:11;103139.75;;;4.03;80.75
65329;BME280;51941;52.210;5.158;2023-02-28T01:12:38;103146.53;;;4.06;80.48
65329;BME280;51941;52.210;5.158;2023-02-28T01:15:06;103146.41;;;4.07;80.41
65329;BME280;51941;52.210;5.158;2023-02-28T01:17:33;103144.63;;;4.08;80.48
65329;BME280;51941;52.210;5.158;2023-02-28T01:20:00;103142.25;;;4.05;80.49
65329;BME280;51941;52.210;5.158;2023-02-28T01:22:28;103024.91;;;3.38;80.29
65329;BME280;51941;52.210;5.158;2023-02-28T01:24:55;103141.59;;;4.12;80.19
65329;BME280;51941;52.210;5.158;2023-02-28T01:27:21;103139.63;;;4.05;80.34
65329;BME280;51941;52.210;5.158;2023-02-28T01:29:50;103136.63;;;4.09;80.39
65329;BME280;51941;52.210;5.158;2023-02-28T01:32:17;103034.47;;;3.48;80.18
65329;BME280;51941;52.210;5.158;2023-02-28T01:34:43;103130.56;;;4.09;80.37
65329;BME280;51941;52.210;5.158;2023-02-28T01:37:10;103130.56;;;4.09;80.42
65329;BME280;51941;52.210;5.158;2023-02-28T01:39:38;103124.38;;;4.10;80.27
65329;BME280;51941;52.210;5.158;2023-02-28T01:42:05;103118.13;;;4.11;80.25
65329;BME280;51941;52.210;5.158;2023-02-28T01:44:55;103127.78;;;4.10;80.39
65329;BME280;51941;52.210;5.158;2023-02-28T01:47:25;103126.00;;;4.11;80.01
65329;BME280;51941;52.210;5.158;2023-02-28T01:49:56;103126.81;;;4.11;80.01
65329;BME280;51941;52.210;5.158;2023-02-28T01:52:24;102992.34;;;3.31;79.99
65329;BME280;51941;52.210;5.158;2023-02-28T01:54:55;103123.53;;;4.09;80.31
65329;BME280;51941;52.210;5.158;2023-02-28T01:57:25;102998.38;;;3.31;80.15
65329;BME280;51941;52.210;5.158;2023-02-28T01:59:56;103110.69;;;4.06;80.13
65329;BME280;51941;52.210;5.158;2023-02-28T02:02:25;103085.34;;;3.86;80.47
65329;BME280;51941;52.210;5.158;2023-02-28T02:04:55;103129.16;;;4.05;80.57
65329;BME280;51941;52.210;5.158;2023-02-28T02:07:24;103115.91;;;4.06;80.55
65329;BME280;51941;52.210;5.158;2023-02-28T02:10:02;103108.31;;;4.03;80.60
65329;BME280;51941;52.210;5.158;2023-02-28T02:12:42;103108.75;;;4.08;80.50
65329;BME280;51941;52.210;5.158;2023-02-28T02:15:20;103103.53;;;4.08;80.70
65329;BME280;51941;52.210;5.158;2023-02-28T02:17:52;102870.56;;;2.66;80.47
65329;BME280;51941;52.210;5.158;2023-02-28T02:20:44;103100.31;;;4.05;80.52
65329;BME280;51941;52.210;5.158;2023-02-28T02:29:50;103107.09;;;4.07;80.78
65329;BME280;51941;52.210;5.158;2023-02-28T02:33:09;103090.94;;;4.02;80.72
65329;BME280;51941;52.210;5.158;2023-02-28T02:35:46;103104.19;;;4.10;80.51
65329;BME280;51941;52.210;5.158;2023-02-28T02:38:18;102989.34;;;3.35;80.60
65329;BME280;51941;52.210;5.158;2023-02-28T02:40:52;103089.41;;;4.00;81.32
65329;BME280;51941;52.210;5.158;2023-02-28T02:43:25;103095.09;;;4.05;80.95
65329;BME280;51941;52.210;5.158;2023-02-28T02:45:58;103099.38;;;4.06;81.30
65329;BME280;51941;52.210;5.158;2023-02-28T02:48:28;103100.78;;;4.10;81.05
65329;BME280;51941;52.210;5.158;2023-02-28T02:51:00;103092.75;;;4.11;81.25
65329;BME280;51941;52.210;5.158;2023-02-28T02:53:32;103101.56;;;4.10;81.39
65329;BME280;51941;52.210;5.158;2023-02-28T02:56:02;102998.72;;;3.38;81.23
65329;BME280;51941;52.210;5.158;2023-02-28T02:58:35;103102.81;;;4.06;81.51
65329;BME280;51941;52.210;5.158;2023-02-28T03:01:08;103079.16;;;3.87;82.10
65329;BME280;51941;52.210;5.158;2023-02-28T03:03:38;103101.56;;;4.01;82.17
65329;BME280;51941;52.210;5.158;2023-02-28T03:06:07;103104.34;;;4.09;82.07
65329;BME280;51941;52.210;5.158;2023-02-28T03:08:36;102883.09;;;2.72;81.76
65329;BME280;51941;52.210;5.158;2023-02-28T03:11:05;103110.44;;;4.09;82.24
65329;BME280;51941;52.210;5.158;2023-02-28T03:16:35;103092.72;;;3.92;82.36
65329;BME280;51941;52.210;5.158;2023-02-28T03:19:23;103103.78;;;4.05;82.60
65329;BME280;51941;52.210;5.158;2023-02-28T03:22:03;103099.13;;;4.09;82.39
65329;BME280;51941;52.210;5.158;2023-02-28T03:24:40;103097.31;;;4.09;82.74
65329;BME280;51941;52.210;5.158;2023-02-28T03:27:17;103073.13;;;3.96;82.67
65329;BME280;51941;52.210;5.158;2023-02-28T03:29:48;103096.78;;;4.15;82.50
65329;BME280;51941;52.210;5.158;2023-02-28T03:32:21;103094.75;;;4.19;82.45
65329;BME280;51941;52.210;5.158;2023-02-28T03:34:56;103091.97;;;4.20;82.77
65329;BME280;51941;52.210;5.158;2023-02-28T03:37:28;103094.75;;;4.19;82.73
65329;BME280;51941;52.210;5.158;2023-02-28T03:40:00;103106.34;;;4.26;82.60
65329;BME280;51941;52.210;5.158;2023-02-28T03:42:35;103096.81;;;4.25;83.48
65329;BME280;51941;52.210;5.158;2023-02-28T03:45:05;103097.66;;;4.25;83.08
65329;BME280;51941;52.210;5.158;2023-02-28T03:47:39;103077.31;;;4.08;82.92
65329;BME280;51941;52.210;5.158;2023-02-28T03:50:11;103105.22;;;4.28;83.10
65329;BME280;51941;52.210;5.158;2023-02-28T03:52:44;102991.63;;;3.59;82.89
65329;BME280;51941;52.210;5.158;2023-02-28T03:55:14;103115.88;;;4.27;83.37
65329;BME280;51941;52.210;5.158;2023-02-28T03:57:51;102995.75;;;3.52;83.33
65329;BME280;51941;52.210;5.158;2023-02-28T04:00:25;103107.44;;;4.23;83.29
65329;BME280;51941;52.210;5.158;2023-02-28T04:02:53;103110.88;;;4.24;83.41
65329;BME280;51941;52.210;5.158;2023-02-28T04:05:21;103076.88;;;4.03;83.76
65329;BME280;51941;52.210;5.158;2023-02-28T04:07:49;103062.91;;;3.93;84.14
65329;BME280;51941;52.210;5.158;2023-02-28T04:10:16;103106.47;;;4.24;83.82
65329;BME280;51941;52.210;5.158;2023-02-28T04:12:43;103110.63;;;4.27;83.80
65329;BME280;51941;52.210;5.158;2023-02-28T04:15:10;103113.50;;;4.24;84.08
65329;BME280;51941;52.210;5.158;2023-02-28T04:17:37;103111.00;;;4.22;84.13
65329;BME280;51941;52.210;5.158;2023-02-28T04:20:05;103122.31;;;4.23;84.39
65329;BME280;51941;52.210;5.158;2023-02-28T04:22:35;103115.72;;;4.19;84.11
65329;BME280;51941;52.210;5.158;2023-02-28T04:25:05;103122.31;;;4.23;84.15
65329;BME280;51941;52.210;5.158;2023-02-28T04:27:32;103116.38;;;4.21;84.78
65329;BME280;51941;52.210;5.158;2023-02-28T04:29:59;103121.63;;;4.21;84.64
65329;BME280;51941;52.210;5.158;2023-02-28T04:32:26;102928.31;;;3.04;84.65
65329;BME280;51941;52.210;5.158;2023-02-28T04:34:53;103121.47;;;4.13;85.50
65329;BME280;51941;52.210;5.158;2023-02-28T04:37:20;103121.59;;;4.11;85.74
65329;BME280;51941;52.210;5.158;2023-02-28T04:39:53;103125.03;;;4.12;85.34
65329;BME280;51941;52.210;5.158;2023-02-28T04:42:21;103114.69;;;4.10;85.06
65329;BME280;51941;52.210;5.158;2023-02-28T04:44:48;103117.00;;;4.04;86.00
65329;BME280;51941;52.210;5.158;2023-02-28T04:47:14;103117.00;;;4.04;85.71
65329;BME280;51941;52.210;5.158;2023-02-28T04:49:41;103122.66;;;3.99;85.85
65329;BME280;51941;52.210;5.158;2023-02-28T04:52:08;103118.38;;;3.98;86.02
65329;BME280;51941;52.210;5.158;2023-02-28T04:54:35;103113.97;;;3.99;85.47
65329;BME280;51941;52.210;5.158;2023-02-28T04:57:04;103122.66;;;3.99;85.52
65329;BME280;51941;52.210;5.158;2023-02-28T04:59:32;103110.50;;;3.98;85.42
65329;BME280;51941;52.210;5.158;2023-02-28T05:01:59;103113.13;;;3.98;85.12
65329;BME280;51941;52.210;5.158;2023-02-28T05:04:29;103109.81;;;3.96;84.89
65329;BME280;51941;52.210;5.158;2023-02-28T05:06:59;103114.22;;;3.96;84.63
65329;BME280;51941;52.210;5.158;2023-02-28T05:09:26;103111.84;;;3.92;84.63
65329;BME280;51941;52.210;5.158;2023-02-28T05:11:53;103116.28;;;3.92;84.34
65329;BME280;51941;52.210;5.158;2023-02-28T05:14:20;103102.44;;;3.80;84.00
65329;BME280;51941;52.210;5.158;2023-02-28T05:16:49;103086.38;;;3.64;83.63
65329;BME280;51941;52.210;5.158;2023-02-28T05:19:15;103112.06;;;3.80;83.65
65329;BME280;51941;52.210;5.158;2023-02-28T05:21:49;103112.31;;;3.77;83.51
65329;BME280;51941;52.210;5.158;2023-02-28T05:24:17;103114.13;;;3.76;83.05
65329;BME280;51941;52.210;5.158;2023-02-28T05:26:49;103115.06;;;3.75;82.91
65329;BME280;51941;52.210;5.158;2023-02-28T05:29:17;103116.44;;;3.70;82.33
65329;BME280;51941;52.210;5.158;2023-02-28T05:31:44;103115.19;;;3.64;81.75
65329;BME280;51941;52.210;5.158;2023-02-28T05:34:13;103098.50;;;3.44;81.42
65329;BME280;51941;52.210;5.158;2023-02-28T05:36:41;103122.44;;;3.61;81.39
65329;BME280;51941;52.210;5.158;2023-02-28T05:39:08;103122.56;;;3.59;80.91
65329;BME280;51941;52.210;5.158;2023-02-28T05:41:39;103110.53;;;3.47;79.73
65329;BME280;51941;52.210;5.158;2023-02-28T05:44:06;103125.47;;;3.56;79.66
65329;BME280;51941;52.210;5.158;2023-02-28T05:46:33;103127.25;;;3.56;79.06
65329;BME280;51941;52.210;5.158;2023-02-28T05:49:01;103125.00;;;3.51;78.73
65329;BME280;51941;52.210;5.158;2023-02-28T05:51:29;103035.16;;;2.88;78.11
65329;BME280;51941;52.210;5.158;2023-02-28T05:53:59;103125.53;;;3.45;78.47
65329;BME280;51941;52.210;5.158;2023-02-28T05:56:25;103128.03;;;3.46;78.10
65329;BME280;51941;52.210;5.158;2023-02-28T05:58:52;103134.34;;;3.44;77.72
65329;BME280;51941;52.210;5.158;2023-02-28T06:01:22;103129.94;;;3.44;77.74
65329;BME280;51941;52.210;5.158;2023-02-28T06:03:49;103120.22;;;3.35;77.28
65329;BME280;51941;52.210;5.158;2023-02-28T06:06:15;103134.34;;;3.44;77.46
65329;BME280;51941;52.210;5.158;2023-02-28T06:08:44;102987.81;;;2.50;77.53
65329;BME280;51941;52.210;5.158;2023-02-28T06:11:11;103137.72;;;3.35;77.14
65329;BME280;51941;52.210;5.158;2023-02-28T06:13:38;103132.59;;;3.33;77.41
65329;BME280;51941;52.210;5.158;2023-02-28T06:16:05;103136.69;;;3.26;77.64
65329;BME280;51941;52.210;5.158;2023-02-28T06:18:32;103131.50;;;3.15;77.73
65329;BME280;51941;52.210;5.158;2023-02-28T06:20:59;103102.81;;;2.93;78.23
65329;BME280;51941;52.210;5.158;2023-02-28T06:23:26;103135.44;;;3.09;78.95
65329;BME280;51941;52.210;5.158;2023-02-28T06:25:54;103146.63;;;3.11;79.34
65329;BME280;51941;52.210;5.158;2023-02-28T06:28:24;103136.78;;;3.04;80.31
65329;BME280;51941;52.210;5.158;2023-02-28T06:30:51;103055.56;;;2.30;81.74
65329;BME280;51941;52.210;5.158;2023-02-28T06:33:18;103146.56;;;2.91;82.94
65329;BME280;51941;52.210;5.158;2023-02-28T06:35:46;103147.06;;;2.85;83.52
65329;BME280;51941;52.210;5.158;2023-02-28T06:38:13;103141.63;;;2.76;84.41
65329;BME280;51941;52.210;5.158;2023-02-28T06:40:40;103158.16;;;2.66;85.63
65329;BME280;51941;52.210;5.158;2023-02-28T06:43:08;103150.31;;;2.66;86.19
65329;BME280;51941;52.210;5.158;2023-02-28T06:45:37;103143.22;;;2.57;87.04
65329;BME280;51941;52.210;5.158;2023-02-28T06:48:04;103153.44;;;2.60;88.17
65329;BME280;51941;52.210;5.158;2023-02-28T06:50:31;103154.38;;;2.59;88.65
65329;BME280;51941;52.210;5.158;2023-02-28T06:52:58;103142.50;;;2.44;88.79
65329;BME280;51941;52.210;5.158;2023-02-28T06:55:24;103163.41;;;2.55;89.71
65329;BME280;51941;52.210;5.158;2023-02-28T06:57:51;103161.84;;;2.52;90.38
65329;BME280;51941;52.210;5.158;2023-02-28T07:00:21;103171.75;;;2.49;91.06
65329;BME280;51941;52.210;5.158;2023-02-28T07:02:48;103165.44;;;2.40;91.57
65329;BME280;51941;52.210;5.158;2023-02-28T07:05:15;103174.00;;;2.42;92.08
65329;BME280;51941;52.210;5.158;2023-02-28T07:07:42;103075.34;;;1.79;92.50
65329;BME280;51941;52.210;5.158;2023-02-28T07:10:11;103178.53;;;2.40;93.03
65329;BME280;51941;52.210;5.158;2023-02-28T07:12:42;103178.53;;;2.40;93.56
65329;BME280;51941;52.210;5.158;2023-02-28T07:15:10;103180.88;;;2.43;93.77
65329;BME280;51941;52.210;5.158;2023-02-28T07:17:38;103185.31;;;2.43;94.64
65329;BME280;51941;52.210;5.158;2023-02-28T07:20:06;103177.69;;;2.39;94.75
65329;BME280;51941;52.210;5.158;2023-02-28T07:22:33;103173.75;;;2.45;95.18
65329;BME280;51941;52.210;5.158;2023-02-28T07:25:00;103053.59;;;1.67;95.49
65329;BME280;51941;52.210;5.158;2023-02-28T07:27:27;102967.19;;;1.03;95.63
65329;BME280;51941;52.210;5.158;2023-02-28T07:29:54;103180.78;;;2.33;96.63
65329;BME280;51941;52.210;5.158;2023-02-28T07:32:21;103176.47;;;2.44;96.62
65329;BME280;51941;52.210;5.158;2023-02-28T07:34:49;103057.88;;;1.68;95.97
65329;BME280;51941;52.210;5.158;2023-02-28T07:37:16;103061.91;;;1.61;97.08
65329;BME280;51941;52.210;5.158;2023-02-28T07:39:43;103171.03;;;2.35;97.05
65329;BME280;51941;52.210;5.158;2023-02-28T07:42:09;103168.41;;;2.35;97.40
65329;BME280;51941;52.210;5.158;2023-02-28T07:44:38;103173.03;;;2.43;97.85
65329;BME280;51941;52.210;5.158;2023-02-28T07:47:07;103176.03;;;2.38;98.33
65329;BME280;51941;52.210;5.158;2023-02-28T07:49:34;103132.41;;;2.17;98.12
65329;BME280;51941;52.210;5.158;2023-02-28T07:52:03;103177.19;;;2.46;98.01
65329;BME280;51941;52.210;5.158;2023-02-28T07:54:31;103176.75;;;2.52;97.85
65329;BME280;51941;52.210;5.158;2023-02-28T07:56:58;103169.97;;;2.60;97.99
65329;BME280;51941;52.210;5.158;2023-02-28T07:59:25;103142.88;;;2.50;97.46
65329;BME280;51941;52.210;5.158;2023-02-28T08:01:51;103168.63;;;2.55;97.74
65329;BME280;51941;52.210;5.158;2023-02-28T08:04:18;103174.13;;;2.52;98.22
65329;BME280;51941;52.210;5.158;2023-02-28T08:06:46;103050.16;;;1.78;97.91
65329;BME280;51941;52.210;5.158;2023-02-28T08:09:14;103171.25;;;2.55;97.90
65329;BME280;51941;52.210;5.158;2023-02-28T08:11:41;103173.03;;;2.65;97.85
65329;BME280;51941;52.210;5.158;2023-02-28T08:14:08;103176.59;;;2.64;97.75
65329;BME280;51941;52.210;5.158;2023-02-28T08:16:34;103177.19;;;2.57;98.17
65329;BME280;51941;52.210;5.158;2023-02-28T08:19:01;103185.66;;;2.60;98.47
65329;BME280;51941;52.210;5.158;2023-02-28T08:21:28;103182.66;;;2.65;98.36
65329;BME280;51941;52.210;5.158;2023-02-28T08:23:55;103183.59;;;2.75;98.21
65329;BME280;51941;52.210;5.158;2023-02-28T08:26:24;103052.31;;;1.95;98.73
65329;BME280;51941;52.210;5.158;2023-02-28T08:28:51;102946.59;;;1.45;97.86
65329;BME280;51941;52.210;5.158;2023-02-28T08:31:18;103184.25;;;2.99;97.80
65329;BME280;51941;52.210;5.158;2023-02-28T08:33:45;103180.66;;;3.11;97.31
65329;BME280;51941;52.210;5.158;2023-02-28T08:36:14;103179.91;;;3.21;97.85
65329;BME280;51941;52.210;5.158;2023-02-28T08:38:40;103169.03;;;3.25;97.21
65329;BME280;51941;52.210;5.158;2023-02-28T08:41:10;103145.50;;;3.25;96.26
65329;BME280;51941;52.210;5.158;2023-02-28T08:43:39;103180.38;;;3.46;95.93
65329;BME280;51941;52.210;5.158;2023-02-28T08:46:07;103179.50;;;3.57;95.43
65329;BME280;51941;52.210;5.158;2023-02-28T08:48:35;103180.00;;;3.72;95.35
65329;BME280;51941;52.210;5.158;2023-02-28T08:51:05;103080.19;;;3.24;95.33
65329;BME280;51941;52.210;5.158;2023-02-28T08:53:32;103182.22;;;3.97;95.18
65329;BME280;51941;52.210;5.158;2023-02-28T08:56:02;103179.69;;;4.16;94.94
65329;BME280;51941;52.210;5.158;2023-02-28T08:58:29;103071.44;;;3.55;94.36
65329;BME280;51941;52.210;5.158;2023-02-28T09:00:57;103169.56;;;4.33;93.91
65329;BME280;51941;52.210;5.158;2023-02-28T09:03:24;103175.69;;;4.52;93.30
65329;BME280;51941;52.210;5.158;2023-02-28T09:05:54;103181.50;;;4.56;92.51
65329;BME280;51941;52.210;5.158;2023-02-28T09:08:20;103177.91;;;4.57;91.91
65329;BME280;51941;52.210;5.158;2023-02-28T09:10:47;103180.44;;;4.68;91.94
65329;BME280;51941;52.210;5.158;2023-02-28T09:13:14;103183.63;;;4.81;91.63
65329;BME280;51941;52.210;5.158;2023-02-28T09:15:41;103190.03;;;4.88;91.02
65329;BME280;51941;52.210;5.158;2023-02-28T09:18:09;103190.16;;;4.87;90.05
65329;BME280;51941;52.210;5.158;2023-02-28T09:20:37;103198.69;;;4.79;89.42
65329;BME280;51941;52.210;5.158;2023-02-28T09:23:05;103198.25;;;4.74;88.36
65329;BME280;51941;52.210;5.158;2023-02-28T09:25:32;103194.66;;;4.75;87.90
65329;BME280;51941;52.210;5.158;2023-02-28T09:27:59;103185.97;;;4.75;86.95
65329;BME280;51941;52.210;5.158;2023-02-28T09:30:25;103183.06;;;4.68;86.19
65329;BME280;51941;52.210;5.158;2023-02-28T09:32:52;103194.78;;;4.74;86.64
65329;BME280;51941;52.210;5.158;2023-02-28T09:35:22;103193.72;;;4.76;85.35
65329;BME280;51941;52.210;5.158;2023-02-28T09:37:50;103188.47;;;4.76;82.44
65329;BME280;51941;52.210;5.158;2023-02-28T09:40:18;103190.94;;;4.78;82.28
65329;BME280;51941;52.210;5.158;2023-02-28T09:42:47;103194.47;;;4.88;82.71
65329;BME280;51941;52.210;5.158;2023-02-28T09:45:24;103203.00;;;4.90;81.96
65329;BME280;51941;52.210;5.158;2023-02-28T09:47:52;103191.16;;;4.95;81.37
65329;BME280;51941;52.210;5.158;2023-02-28T09:50:29;103188.25;;;4.98;80.57
65329;BME280;51941;52.210;5.158;2023-02-28T09:52:59;103192.00;;;5.06;80.18
65329;BME280;51941;52.210;5.158;2023-02-28T09:55:30;103193.25;;;5.11;78.85
65329;BME280;51941;52.210;5.158;2023-02-28T09:58:00;103108.63;;;4.69;78.15
65329;BME280;51941;52.210;5.158;2023-02-28T10:00:32;103197.38;;;5.52;76.76
65329;BME280;51941;52.210;5.158;2023-02-28T10:03:28;103199.59;;;5.66;74.21
65329;BME280;51941;52.210;5.158;2023-02-28T10:06:03;103166.16;;;5.49;72.54
65329;BME280;51941;52.210;5.158;2023-02-28T10:08:35;103204.56;;;5.69;71.54
65329;BME280;51941;52.210;5.158;2023-02-28T10:11:07;103197.38;;;5.71;69.96
65329;BME280;51941;52.210;5.158;2023-02-28T10:32:22;103195.97;;;6.61;65.41
65329;BME280;51941;52.210;5.158;2023-02-28T10:34:57;103188.88;;;6.61;64.24
65329;BME280;51941;52.210;5.158;2023-02-28T10:37:25;103181.13;;;6.60;61.61
65329;BME280;51941;52.210;5.158;2023-02-28T10:39:52;103187.59;;;6.65;61.46
65329;BME280;51941;52.210;5.158;2023-02-28T10:42:22;103170.75;;;6.58;60.95
65329;BME280;51941;52.210;5.158;2023-02-28T10:45:05;103176.28;;;6.65;59.02
65329;BME280;51941;52.210;5.158;2023-02-28T10:47:35;103171.31;;;6.62;56.85
65329;BME280;51941;52.210;5.158;2023-02-28T10:50:26;103179.00;;;6.73;54.20
65329;BME280;51941;52.210;5.158;2023-02-28T10:52:54;103174.47;;;6.83;54.90
65329;BME280;51941;52.210;5.158;2023-02-28T10:55:23;103180.13;;;6.88;53.25
65329;BME280;51941;52.210;5.158;2023-02-28T10:57:50;103175.63;;;6.98;52.05
65329;BME280;51941;52.210;5.158;2023-02-28T11:00:19;103168.25;;;7.02;49.56
65329;BME280;51941;52.210;5.158;2023-02-28T11:02:48;103160.22;;;7.03;48.10
65329;BME280;51941;52.210;5.158;2023-02-28T11:05:27;103160.88;;;7.23;48.08
65329;BME280;51941;52.210;5.158;2023-02-28T11:07:56;103157.59;;;7.39;48.60
65329;BME280;51941;52.210;5.158;2023-02-28T11:10:26;103150.56;;;7.47;48.26
65329;BME280;51941;52.210;5.158;2023-02-28T11:12:56;103151.09;;;7.51;48.22
65329;BME280;51941;52.210;5.158;2023-02-28T11:15:26;103145.44;;;7.46;47.71
65329;BME280;51941;52.210;5.158;2023-02-28T11:17:57;103145.09;;;7.41;46.33
65329;BME280;51941;52.210;5.158;2023-02-28T11:20:27;103115.44;;;7.03;45.88
65329;BME280;51941;52.210;5.158;2023-02-28T11:22:55;103136.06;;;7.08;45.60
65329;BME280;51941;52.210;5.158;2023-02-28T11:25:24;103132.34;;;7.01;45.52
65329;BME280;51941;52.210;5.158;2023-02-28T11:27:53;103127.03;;;6.92;46.18
65329;BME280;51941;52.210;5.158;2023-02-28T11:30:31;103129.44;;;6.86;45.90
65329;BME280;51941;52.210;5.158;2023-02-28T11:33:01;103117.91;;;6.69;45.27
65329;BME280;51941;52.210;5.158;2023-02-28T11:35:30;103122.50;;;6.67;46.27
65329;BME280;51941;52.210;5.158;2023-02-28T11:38:00;103083.28;;;6.29;46.37
65329;BME280;51941;52.210;5.158;2023-02-28T11:40:34;103050.31;;;6.07;45.75
65329;BME280;51941;52.210;5.158;2023-02-28T11:43:10;103090.50;;;6.27;45.88
65329;BME280;51941;52.210;5.158;2023-02-28T11:45:54;103112.84;;;6.40;45.86
65329;BME280;51941;52.210;5.158;2023-02-28T11:48:32;103114.22;;;6.44;46.14
65329;BME280;51941;52.210;5.158;2023-02-28T11:51:12;103114.34;;;6.43;45.13
65329;BME280;51941;52.210;5.158;2023-02-28T11:54:02;103115.97;;;6.26;44.78
65329;BME280;51941;52.210;5.158;2023-02-28T11:56:36;103122.44;;;6.32;45.08
65329;BME280;51941;52.210;5.158;2023-02-28T11:59:17;103112.75;;;6.32;45.43
65329;BME280;51941;52.210;5.158;2023-02-28T12:02:08;103098.19;;;6.38;45.12
65329;BME280;51941;52.210;5.158;2023-02-28T12:04:52;103104.50;;;6.45;45.56
65329;BME280;51941;52.210;5.158;2023-02-28T12:07:28;103111.28;;;6.47;45.14
65329;BME280;51941;52.210;5.158;2023-02-28T12:10:04;103102.56;;;6.47;44.85
65329;BME280;51941;52.210;5.158;2023-02-28T12:12:42;103059.41;;;6.12;44.21
65329;BME280;51941;52.210;5.158;2023-02-28T12:15:38;103096.41;;;6.38;43.94
65329;BME280;51941;52.210;5.158;2023-02-28T12:18:26;103075.84;;;6.24;44.25
65329;BME280;51941;52.210;5.158;2023-02-28T12:21:04;103100.50;;;6.41;43.99
65329;BME280;51941;52.210;5.158;2023-02-28T12:23:53;103099.75;;;6.48;43.79
65329;BME280;51941;52.210;5.158;2023-02-28T12:26:30;103094.34;;;6.50;44.36
65329;BME280;51941;52.210;5.158;2023-02-28T12:29:04;103099.34;;;6.53;44.43
65329;BME280;51941;52.210;5.158;2023-02-28T12:31:37;103096.31;;;6.48;44.00
65329;BME280;51941;52.210;5.158;2023-02-28T12:34:07;103068.47;;;6.28;44.53
65329;BME280;51941;52.210;5.158;2023-02-28T12:36:37;103052.63;;;6.20;43.73
65329;BME280;51941;52.210;5.158;2023-02-28T12:39:10;103085.97;;;6.46;42.16
65329;BME280;51941;52.210;5.158;2023-02-28T12:41:42;103057.16;;;6.45;42.15
65329;BME280;51941;52.210;5.158;2023-02-28T12:44:15;103024.38;;;6.39;41.20
65329;BME280;51941;52.210;5.158;2023-02-28T12:46:47;103070.19;;;6.82;41.39
65329;BME280;51941;52.210;5.158;2023-02-28T12:49:18;103047.22;;;6.74;41.18
65329;BME280;51941;52.210;5.158;2023-02-28T12:51:50;103067.84;;;6.79;41.38
65329;BME280;51941;52.210;5.158;2023-02-28T12:54:22;103028.38;;;6.43;41.08
65329;BME280;51941;52.210;5.158;2023-02-28T12:56:56;103071.72;;;6.57;40.55
65329;BME280;51941;52.210;5.158;2023-02-28T12:59:27;103078.91;;;6.47;40.41
65329;BME280;51941;52.210;5.158;2023-02-28T13:02:26;103085.28;;;6.44;40.02
65329;BME280;51941;52.210;5.158;2023-02-28T13:05:22;103073.78;;;6.45;41.01
65329;BME280;51941;52.210;5.158;2023-02-28T13:08:08;103028.78;;;6.39;41.22
65329;BME280;51941;52.210;5.158;2023-02-28T13:10:40;103068.22;;;6.66;41.04
65329;BME280;51941;52.210;5.158;2023-02-28T13:13:14;103065.81;;;6.73;40.75
65329;BME280;51941;52.210;5.158;2023-02-28T13:16:00;103051.84;;;6.72;40.18
65329;BME280;51941;52.210;5.158;2023-02-28T13:18:30;103050.53;;;6.76;40.59
65329;BME280;51941;52.210;5.158;2023-02-28T13:20:57;103047.63;;;6.79;40.75
65329;BME280;51941;52.210;5.158;2023-02-28T13:23:59;102999.22;;;6.37;40.25
65329;BME280;51941;52.210;5.158;2023-02-28T13:29:37;103054.22;;;6.66;39.85
65329;BME280;51941;52.210;5.158;2023-02-28T13:35:13;103047.00;;;6.68;39.38
65329;BME280;51941;52.210;5.158;2023-02-28T13:37:42;103039.78;;;6.70;39.38
65329;BME280;51941;52.210;5.158;2023-02-28T13:40:32;103035.78;;;6.66;38.66
65329;BME280;51941;52.210;5.158;2023-02-28T13:43:07;103038.34;;;6.75;39.15
65329;BME280;51941;52.210;5.158;2023-02-28T13:45:34;103040.47;;;6.72;38.77
65329;BME280;51941;52.210;5.158;2023-02-28T13:48:04;103036.56;;;6.76;39.81
65329;BME280;51941;52.210;5.158;2023-02-28T13:50:41;103032.72;;;6.70;39.67
65329;BME280;51941;52.210;5.158;2023-02-28T13:53:32;103033.84;;;6.68;39.06